VOBG/BLR METAR and TAF weather

Enter ICAO airport designator
Station Type Date Time Source
VOBG METAR 2022/11/30 17:00 UTC NOAA

VOBG 301700Z 00000KT 6000 NSC 19/14 Q1017 NOSIG


Station Type Date Time Source
VOBG Decoded METAR 2022/11/30 17:00 UTC NOAA

Bangalore / Hindustan, India (VOBG) 12-57N 077-40E
Nov 30, 2022 - 12:00 PM EST / 2022.11.30 1700 UTC
Wind: Calm:0
Visibility: 3 mile(s):0
Temperature: 66 F (19 C)
Dew Point: 57 F (14 C)
Relative Humidity: 72%
Pressure (altimeter): 30.03 in. Hg (1017 hPa)
ob: VOBG 301700Z 00000KT 6000 NSC 19/14 Q1017 NOSIG
cycle: 17

Station Type Date Time Source
VOBG TAF 2022/10/11 21:00 UTC NOAA

VOBG 112000Z 1121/1206 15008KT 6000 SCT012 SCT080
TEMPO 1122/1203 3000 DZ BR SCT008 SCT012 BKN080

Example: see airport list